Flight Sim Network - PAAQ Airport Info

    PAAQ (Palmer Municipal Airport)  Login to use Map Selector
   

  RUNWAY INFORMATION    |    Airport Elevation : 242ft    |    LAT : 61.594898223877  /  LON : -149.089004516602
Runway Number 09 / 27 Runway Width 75' Runway Length 3617'
Lighted Runway Yes Runway StatusOpen Runway Surface Asphalt
Runway Number 16 / 34 Runway Width 100' Runway Length 6008'
Lighted Runway Yes Runway StatusOpen Runway Surface Asphalt
Runway Number 16S / 34S Runway Width 60' Runway Length 1560'
Lighted Runway No Runway StatusOpen Runway Surface Gravel
  CLOSE ALTERNATE AIRPORTS
ICAODistanceAirport NameLongest RWRW SurfaceMAP
99Z5NMFinger Lake Seaplane Base5500FTWater
4AK66NMWolf Lake Airport3800FTAsphalt
3H36NMCottonwood Lake Seaplane Base4000FTWater
0AK17NMAnderson Lake Airport3000FTWater
58AK8NMFairview East Airport3578FTDirt
5L69NMWasilla Lake Seaplane Base4000FTWater
PAWS13NMWasilla Airport3700FTAsphalt
54AK14NMKalmbach Lake Seaplane Base4500FTWater
PABV16NMBirchwood Airport4010FTAsphalt
3A316NMSeymour Lake Seaplane Base6000FTWater
  AIRPORT WEATHER
69°F | 20°C
Temperature
48%
Humidity
30" | 1016mb
Pressure
10sm
Visibility
VFR
Flight Rules
CLR
Initial Clouds
FAIR
Conditions
Wind Info
6/15/24 20:53Z
Updated

PAAQ 152053Z 16004KT 10SM CLR 21/09 A3002 RMK AO2 SLP167 T02060094 57007
  AIRPORT CHARTS
  AIRPORT FREQUENCIES
NameFrequency
CLEARANCE122.400
MULTICOM123.600
APPROACH118.600
DEPARTURE118.600

Powered by Virtual Airlines Manager